sensor_id;sensor_type;location;lat;lon;timestamp;temperature;humidity
14140;DHT22;7150;53.514;9.988;2023-02-19T00:01:10;11.80;92.10
14140;DHT22;7150;53.514;9.988;2023-02-19T00:03:37;11.80;92.10
14140;DHT22;7150;53.514;9.988;2023-02-19T00:06:05;11.80;92.10
14140;DHT22;7150;53.514;9.988;2023-02-19T00:08:31;11.80;92.10
14140;DHT22;7150;53.514;9.988;2023-02-19T00:11:05;11.90;92.20
14140;DHT22;7150;53.514;9.988;2023-02-19T00:13:34;11.90;92.20
14140;DHT22;7150;53.514;9.988;2023-02-19T00:16:05;11.80;92.20
14140;DHT22;7150;53.514;9.988;2023-02-19T00:18:30;11.80;92.30
14140;DHT22;7150;53.514;9.988;2023-02-19T00:20:56;11.80;92.30
14140;DHT22;7150;53.514;9.988;2023-02-19T00:23:21;11.80;92.30
14140;DHT22;7150;53.514;9.988;2023-02-19T00:25:47;11.80;92.30
14140;DHT22;7150;53.514;9.988;2023-02-19T00:28:12;11.80;92.30
14140;DHT22;7150;53.514;9.988;2023-02-19T00:30:38;11.90;92.40
14140;DHT22;7150;53.514;9.988;2023-02-19T00:33:03;11.90;92.40
14140;DHT22;7150;53.514;9.988;2023-02-19T00:35:32;11.80;92.40
14140;DHT22;7150;53.514;9.988;2023-02-19T00:37:57;11.80;92.50
14140;DHT22;7150;53.514;9.988;2023-02-19T00:40:23;11.80;92.50
14140;DHT22;7150;53.514;9.988;2023-02-19T00:42:50;11.80;92.50
14140;DHT22;7150;53.514;9.988;2023-02-19T00:45:16;11.80;92.60
14140;DHT22;7150;53.514;9.988;2023-02-19T00:47:41;11.80;92.60
14140;DHT22;7150;53.514;9.988;2023-02-19T00:50:07;11.80;92.70
14140;DHT22;7150;53.514;9.988;2023-02-19T00:52:32;11.70;92.70
14140;DHT22;7150;53.514;9.988;2023-02-19T00:54:58;11.70;92.80
14140;DHT22;7150;53.514;9.988;2023-02-19T00:57:23;11.70;92.80
14140;DHT22;7150;53.514;9.988;2023-02-19T00:59:49;11.70;92.90
14140;DHT22;7150;53.514;9.988;2023-02-19T01:02:14;11.70;93.00
14140;DHT22;7150;53.514;9.988;2023-02-19T01:04:40;11.70;93.00
14140;DHT22;7150;53.514;9.988;2023-02-19T01:07:05;11.70;93.10
14140;DHT22;7150;53.514;9.988;2023-02-19T01:09:31;11.80;93.10
14140;DHT22;7150;53.514;9.988;2023-02-19T01:11:56;11.80;93.10
14140;DHT22;7150;53.514;9.988;2023-02-19T01:14:22;11.70;93.20
14140;DHT22;7150;53.514;9.988;2023-02-19T01:16:47;11.70;93.20
14140;DHT22;7150;53.514;9.988;2023-02-19T01:19:12;11.70;93.20
14140;DHT22;7150;53.514;9.988;2023-02-19T01:21:39;11.70;93.30
14140;DHT22;7150;53.514;9.988;2023-02-19T01:24:05;11.70;93.30
14140;DHT22;7150;53.514;9.988;2023-02-19T01:26:32;11.70;93.30
14140;DHT22;7150;53.514;9.988;2023-02-19T01:29:00;11.70;93.30
14140;DHT22;7150;53.514;9.988;2023-02-19T01:31:26;11.70;93.30
14140;DHT22;7150;53.514;9.988;2023-02-19T01:33:54;11.70;93.30
14140;DHT22;7150;53.514;9.988;2023-02-19T01:36:21;11.70;93.30
14140;DHT22;7150;53.514;9.988;2023-02-19T01:38:47;11.70;93.40
14140;DHT22;7150;53.514;9.988;2023-02-19T01:41:15;11.70;93.40
14140;DHT22;7150;53.514;9.988;2023-02-19T01:44:00;11.60;93.40
14140;DHT22;7150;53.514;9.988;2023-02-19T01:46:31;11.60;93.40
14140;DHT22;7150;53.514;9.988;2023-02-19T01:51:45;11.60;93.60
14140;DHT22;7150;53.514;9.988;2023-02-19T01:54:14;11.50;93.60
14140;DHT22;7150;53.514;9.988;2023-02-19T01:56:42;11.50;93.60
14140;DHT22;7150;53.514;9.988;2023-02-19T01:59:10;11.60;93.70
14140;DHT22;7150;53.514;9.988;2023-02-19T02:01:37;11.50;93.60
14140;DHT22;7150;53.514;9.988;2023-02-19T02:04:05;11.50;93.70
14140;DHT22;7150;53.514;9.988;2023-02-19T02:06:38;11.50;93.60
14140;DHT22;7150;53.514;9.988;2023-02-19T02:09:05;11.50;93.50
14140;DHT22;7150;53.514;9.988;2023-02-19T02:11:51;11.50;93.20
14140;DHT22;7150;53.514;9.988;2023-02-19T02:14:20;11.40;93.30
14140;DHT22;7150;53.514;9.988;2023-02-19T02:22:53;11.30;93.20
14140;DHT22;7150;53.514;9.988;2023-02-19T02:25:44;11.30;93.30
14140;DHT22;7150;53.514;9.988;2023-02-19T02:31:03;11.20;93.30
14140;DHT22;7150;53.514;9.988;2023-02-19T02:33:43;11.20;93.40
14140;DHT22;7150;53.514;9.988;2023-02-19T02:36:28;11.30;93.30
14140;DHT22;7150;53.514;9.988;2023-02-19T02:38:55;11.30;93.20
14140;DHT22;7150;53.514;9.988;2023-02-19T02:41:22;11.40;93.20
14140;DHT22;7150;53.514;9.988;2023-02-19T02:43:48;11.40;93.10
14140;DHT22;7150;53.514;9.988;2023-02-19T02:46:21;11.30;92.80
14140;DHT22;7150;53.514;9.988;2023-02-19T02:48:52;11.40;92.70
14140;DHT22;7150;53.514;9.988;2023-02-19T02:51:26;11.30;92.50
14140;DHT22;7150;53.514;9.988;2023-02-19T02:57:02;11.30;92.10
14140;DHT22;7150;53.514;9.988;2023-02-19T02:59:32;11.20;92.10
14140;DHT22;7150;53.514;9.988;2023-02-19T03:02:18;11.20;92.30
14140;DHT22;7150;53.514;9.988;2023-02-19T03:05:01;11.20;92.30
14140;DHT22;7150;53.514;9.988;2023-02-19T03:07:57;11.20;92.30
14140;DHT22;7150;53.514;9.988;2023-02-19T03:10:28;11.20;92.30
14140;DHT22;7150;53.514;9.988;2023-02-19T03:12:59;11.20;92.30
14140;DHT22;7150;53.514;9.988;2023-02-19T03:15:47;11.10;92.00
14140;DHT22;7150;53.514;9.988;2023-02-19T03:18:36;11.20;92.00
14140;DHT22;7150;53.514;9.988;2023-02-19T03:21:24;11.20;92.00
14140;DHT22;7150;53.514;9.988;2023-02-19T03:23:52;11.20;91.90
14140;DHT22;7150;53.514;9.988;2023-02-19T03:26:38;11.20;91.90
14140;DHT22;7150;53.514;9.988;2023-02-19T03:29:05;11.10;91.90
14140;DHT22;7150;53.514;9.988;2023-02-19T03:32:03;11.20;91.90
14140;DHT22;7150;53.514;9.988;2023-02-19T03:34:35;11.10;91.90
14140;DHT22;7150;53.514;9.988;2023-02-19T03:37:13;11.10;92.00
14140;DHT22;7150;53.514;9.988;2023-02-19T03:39:40;11.10;91.90
14140;DHT22;7150;53.514;9.988;2023-02-19T03:45:04;11.10;92.00
14140;DHT22;7150;53.514;9.988;2023-02-19T03:50:16;11.00;92.20
14140;DHT22;7150;53.514;9.988;2023-02-19T03:56:03;11.10;92.10
14140;DHT22;7150;53.514;9.988;2023-02-19T03:58:40;11.00;92.20
14140;DHT22;7150;53.514;9.988;2023-02-19T04:03:50;11.00;92.20
14140;DHT22;7150;53.514;9.988;2023-02-19T04:06:29;11.10;92.10
14140;DHT22;7150;53.514;9.988;2023-02-19T04:08:59;11.00;92.10
14140;DHT22;7150;53.514;9.988;2023-02-19T04:11:27;11.00;92.20
14140;DHT22;7150;53.514;9.988;2023-02-19T04:14:05;10.90;92.10
14140;DHT22;7150;53.514;9.988;2023-02-19T04:16:33;11.00;92.20
14140;DHT22;7150;53.514;9.988;2023-02-19T04:19:09;11.00;92.20
14140;DHT22;7150;53.514;9.988;2023-02-19T04:21:36;11.10;92.10
14140;DHT22;7150;53.514;9.988;2023-02-19T04:24:07;11.00;92.10
14140;DHT22;7150;53.514;9.988;2023-02-19T04:26:34;11.00;92.10
14140;DHT22;7150;53.514;9.988;2023-02-19T04:29:01;11.10;92.20
14140;DHT22;7150;53.514;9.988;2023-02-19T04:31:29;11.10;92.20
14140;DHT22;7150;53.514;9.988;2023-02-19T04:33:55;11.10;92.20
14140;DHT22;7150;53.514;9.988;2023-02-19T04:36:21;11.10;92.20
14140;DHT22;7150;53.514;9.988;2023-02-19T04:38:46;11.10;92.20
14140;DHT22;7150;53.514;9.988;2023-02-19T04:41:11;11.10;92.30
14140;DHT22;7150;53.514;9.988;2023-02-19T04:43:37;11.10;92.30
14140;DHT22;7150;53.514;9.988;2023-02-19T04:46:03;11.10;92.40
14140;DHT22;7150;53.514;9.988;2023-02-19T04:48:28;11.10;92.30
14140;DHT22;7150;53.514;9.988;2023-02-19T04:50:54;11.10;92.30
14140;DHT22;7150;53.514;9.988;2023-02-19T04:53:19;11.10;92.20
14140;DHT22;7150;53.514;9.988;2023-02-19T04:55:45;11.20;92.20
14140;DHT22;7150;53.514;9.988;2023-02-19T04:58:12;11.20;92.20
14140;DHT22;7150;53.514;9.988;2023-02-19T05:00:38;11.10;92.10
14140;DHT22;7150;53.514;9.988;2023-02-19T05:03:03;11.10;92.10
14140;DHT22;7150;53.514;9.988;2023-02-19T05:05:29;11.10;92.10
14140;DHT22;7150;53.514;9.988;2023-02-19T05:07:54;11.10;92.10
14140;DHT22;7150;53.514;9.988;2023-02-19T05:10:20;11.10;92.10
14140;DHT22;7150;53.514;9.988;2023-02-19T05:12:45;11.10;92.10
14140;DHT22;7150;53.514;9.988;2023-02-19T05:15:11;11.10;92.10
14140;DHT22;7150;53.514;9.988;2023-02-19T05:17:36;11.10;92.10
14140;DHT22;7150;53.514;9.988;2023-02-19T05:20:02;11.10;92.10
14140;DHT22;7150;53.514;9.988;2023-02-19T05:22:29;11.10;92.10
14140;DHT22;7150;53.514;9.988;2023-02-19T05:24:54;11.00;92.10
14140;DHT22;7150;53.514;9.988;2023-02-19T05:27:20;11.00;92.10
14140;DHT22;7150;53.514;9.988;2023-02-19T05:29:45;11.00;92.10
14140;DHT22;7150;53.514;9.988;2023-02-19T05:32:10;11.00;92.10
14140;DHT22;7150;53.514;9.988;2023-02-19T05:34:36;11.00;92.10
14140;DHT22;7150;53.514;9.988;2023-02-19T05:37:01;11.00;92.40
14140;DHT22;7150;53.514;9.988;2023-02-19T05:39:27;10.90;92.00
14140;DHT22;7150;53.514;9.988;2023-02-19T05:41:52;11.00;92.00
14140;DHT22;7150;53.514;9.988;2023-02-19T05:44:18;11.00;91.90
14140;DHT22;7150;53.514;9.988;2023-02-19T05:46:43;11.00;91.90
14140;DHT22;7150;53.514;9.988;2023-02-19T05:49:09;11.00;91.90
14140;DHT22;7150;53.514;9.988;2023-02-19T05:51:34;11.00;91.90
14140;DHT22;7150;53.514;9.988;2023-02-19T05:54:00;10.90;91.90
14140;DHT22;7150;53.514;9.988;2023-02-19T05:56:33;10.90;91.90
14140;DHT22;7150;53.514;9.988;2023-02-19T05:59:01;10.90;91.90
14140;DHT22;7150;53.514;9.988;2023-02-19T06:01:28;10.90;91.90
14140;DHT22;7150;53.514;9.988;2023-02-19T06:03:54;10.90;92.00
14140;DHT22;7150;53.514;9.988;2023-02-19T06:06:20;10.80;91.90
14140;DHT22;7150;53.514;9.988;2023-02-19T06:08:48;10.80;91.90
14140;DHT22;7150;53.514;9.988;2023-02-19T06:11:15;10.90;92.00
14140;DHT22;7150;53.514;9.988;2023-02-19T06:13:40;10.90;92.00
14140;DHT22;7150;53.514;9.988;2023-02-19T06:16:06;10.80;91.90
14140;DHT22;7150;53.514;9.988;2023-02-19T06:18:33;10.80;91.90
14140;DHT22;7150;53.514;9.988;2023-02-19T06:21:04;10.80;91.90
14140;DHT22;7150;53.514;9.988;2023-02-19T06:23:30;10.80;91.90
14140;DHT22;7150;53.514;9.988;2023-02-19T06:26:11;10.80;91.80
14140;DHT22;7150;53.514;9.988;2023-02-19T06:28:37;10.80;91.90
14140;DHT22;7150;53.514;9.988;2023-02-19T06:31:04;10.80;91.90
14140;DHT22;7150;53.514;9.988;2023-02-19T06:33:30;10.80;92.00
14140;DHT22;7150;53.514;9.988;2023-02-19T06:36:00;10.80;91.90
14140;DHT22;7150;53.514;9.988;2023-02-19T06:38:26;10.70;91.90
14140;DHT22;7150;53.514;9.988;2023-02-19T06:40:52;10.80;91.90
14140;DHT22;7150;53.514;9.988;2023-02-19T06:43:17;10.80;91.80
14140;DHT22;7150;53.514;9.988;2023-02-19T06:45:43;10.80;91.80
14140;DHT22;7150;53.514;9.988;2023-02-19T06:48:08;10.70;91.70
14140;DHT22;7150;53.514;9.988;2023-02-19T06:50:34;10.70;91.80
14140;DHT22;7150;53.514;9.988;2023-02-19T06:53:00;10.70;91.80
14140;DHT22;7150;53.514;9.988;2023-02-19T06:55:25;10.70;91.80
14140;DHT22;7150;53.514;9.988;2023-02-19T06:57:50;10.70;91.80
14140;DHT22;7150;53.514;9.988;2023-02-19T07:00:16;10.70;91.90
14140;DHT22;7150;53.514;9.988;2023-02-19T07:02:42;10.70;91.90
14140;DHT22;7150;53.514;9.988;2023-02-19T07:05:07;10.70;91.90
14140;DHT22;7150;53.514;9.988;2023-02-19T07:07:33;10.60;91.90
14140;DHT22;7150;53.514;9.988;2023-02-19T07:09:59;10.60;91.90
14140;DHT22;7150;53.514;9.988;2023-02-19T07:12:24;10.60;92.00
14140;DHT22;7150;53.514;9.988;2023-02-19T07:14:50;10.70;92.00
14140;DHT22;7150;53.514;9.988;2023-02-19T07:17:15;10.70;92.00
14140;DHT22;7150;53.514;9.988;2023-02-19T07:19:41;10.70;92.00
14140;DHT22;7150;53.514;9.988;2023-02-19T07:22:06;10.80;92.10
14140;DHT22;7150;53.514;9.988;2023-02-19T07:24:31;10.70;92.10
14140;DHT22;7150;53.514;9.988;2023-02-19T07:26:57;10.70;92.10
14140;DHT22;7150;53.514;9.988;2023-02-19T07:29:22;10.80;92.10
14140;DHT22;7150;53.514;9.988;2023-02-19T07:31:48;10.80;92.00
14140;DHT22;7150;53.514;9.988;2023-02-19T07:34:13;10.80;92.10
14140;DHT22;7150;53.514;9.988;2023-02-19T07:36:39;10.80;92.10
14140;DHT22;7150;53.514;9.988;2023-02-19T07:39:04;10.80;92.10
14140;DHT22;7150;53.514;9.988;2023-02-19T07:41:30;10.90;92.10
14140;DHT22;7150;53.514;9.988;2023-02-19T07:43:55;11.00;92.10
14140;DHT22;7150;53.514;9.988;2023-02-19T07:46:21;10.90;92.00
14140;DHT22;7150;53.514;9.988;2023-02-19T07:48:47;11.00;92.00
14140;DHT22;7150;53.514;9.988;2023-02-19T07:51:16;11.10;92.00
14140;DHT22;7150;53.514;9.988;2023-02-19T07:53:43;11.10;92.00
14140;DHT22;7150;53.514;9.988;2023-02-19T07:56:10;11.10;91.90
14140;DHT22;7150;53.514;9.988;2023-02-19T07:58:37;11.10;91.90
14140;DHT22;7150;53.514;9.988;2023-02-19T08:01:40;11.10;91.90
14140;DHT22;7150;53.514;9.988;2023-02-19T08:04:17;11.10;91.70
14140;DHT22;7150;53.514;9.988;2023-02-19T08:06:43;11.10;91.70
14140;DHT22;7150;53.514;9.988;2023-02-19T08:09:08;11.10;91.70
14140;DHT22;7150;53.514;9.988;2023-02-19T08:11:34;11.10;91.80
14140;DHT22;7150;53.514;9.988;2023-02-19T08:14:22;11.10;91.80
14140;DHT22;7150;53.514;9.988;2023-02-19T08:16:51;11.00;91.80
14140;DHT22;7150;53.514;9.988;2023-02-19T08:19:17;11.00;91.90
14140;DHT22;7150;53.514;9.988;2023-02-19T08:21:43;11.00;91.90
14140;DHT22;7150;53.514;9.988;2023-02-19T08:24:09;11.00;91.90
14140;DHT22;7150;53.514;9.988;2023-02-19T08:26:35;11.00;91.80
14140;DHT22;7150;53.514;9.988;2023-02-19T08:29:01;11.00;91.70
14140;DHT22;7150;53.514;9.988;2023-02-19T08:31:27;10.90;91.70
14140;DHT22;7150;53.514;9.988;2023-02-19T08:33:52;10.90;91.70
14140;DHT22;7150;53.514;9.988;2023-02-19T08:36:18;11.00;91.70
14140;DHT22;7150;53.514;9.988;2023-02-19T08:38:43;11.10;91.70
14140;DHT22;7150;53.514;9.988;2023-02-19T08:41:10;11.10;91.60
14140;DHT22;7150;53.514;9.988;2023-02-19T08:43:36;11.10;91.60
14140;DHT22;7150;53.514;9.988;2023-02-19T08:46:02;11.20;91.70
14140;DHT22;7150;53.514;9.988;2023-02-19T08:48:28;11.10;91.50
14140;DHT22;7150;53.514;9.988;2023-02-19T08:51:02;11.10;91.50
14140;DHT22;7150;53.514;9.988;2023-02-19T08:53:29;11.10;91.50
14140;DHT22;7150;53.514;9.988;2023-02-19T08:55:55;11.10;91.50
14140;DHT22;7150;53.514;9.988;2023-02-19T08:58:21;11.10;91.50
14140;DHT22;7150;53.514;9.988;2023-02-19T09:00:47;11.10;91.40
14140;DHT22;7150;53.514;9.988;2023-02-19T09:03:12;11.20;91.40
14140;DHT22;7150;53.514;9.988;2023-02-19T09:05:38;11.20;91.30
14140;DHT22;7150;53.514;9.988;2023-02-19T09:08:04;11.20;91.20
14140;DHT22;7150;53.514;9.988;2023-02-19T09:10:29;11.10;91.30
14140;DHT22;7150;53.514;9.988;2023-02-19T09:12:55;11.20;91.30
14140;DHT22;7150;53.514;9.988;2023-02-19T09:15:20;11.20;91.20
14140;DHT22;7150;53.514;9.988;2023-02-19T09:17:51;11.20;91.30
14140;DHT22;7150;53.514;9.988;2023-02-19T09:20:17;11.20;91.20
14140;DHT22;7150;53.514;9.988;2023-02-19T09:22:42;11.30;91.00
14140;DHT22;7150;53.514;9.988;2023-02-19T09:25:08;11.30;90.80
14140;DHT22;7150;53.514;9.988;2023-02-19T09:27:33;11.20;90.90
14140;DHT22;7150;53.514;9.988;2023-02-19T09:29:59;11.10;90.80
14140;DHT22;7150;53.514;9.988;2023-02-19T09:32:24;11.10;91.00
14140;DHT22;7150;53.514;9.988;2023-02-19T09:34:50;11.20;91.00
14140;DHT22;7150;53.514;9.988;2023-02-19T09:37:16;11.40;90.80
14140;DHT22;7150;53.514;9.988;2023-02-19T09:39:42;11.30;90.80
14140;DHT22;7150;53.514;9.988;2023-02-19T09:42:14;11.30;90.70
14140;DHT22;7150;53.514;9.988;2023-02-19T09:44:44;11.20;90.80
14140;DHT22;7150;53.514;9.988;2023-02-19T09:47:31;11.30;90.90
14140;DHT22;7150;53.514;9.988;2023-02-19T09:50:04;11.30;90.90
14140;DHT22;7150;53.514;9.988;2023-02-19T09:52:37;11.30;90.60
14140;DHT22;7150;53.514;9.988;2023-02-19T09:55:17;11.30;90.80
14140;DHT22;7150;53.514;9.988;2023-02-19T09:57:48;11.40;90.60
14140;DHT22;7150;53.514;9.988;2023-02-19T10:00:21;11.30;90.70
14140;DHT22;7150;53.514;9.988;2023-02-19T10:02:54;11.40;90.90
14140;DHT22;7150;53.514;9.988;2023-02-19T10:05:24;11.40;90.80
14140;DHT22;7150;53.514;9.988;2023-02-19T10:07:52;11.40;90.90
14140;DHT22;7150;53.514;9.988;2023-02-19T10:10:33;11.50;90.80
14140;DHT22;7150;53.514;9.988;2023-02-19T10:13:19;11.60;90.80
14140;DHT22;7150;53.514;9.988;2023-02-19T10:15:55;11.60;90.50
14140;DHT22;7150;53.514;9.988;2023-02-19T10:18:25;11.60;90.50
14140;DHT22;7150;53.514;9.988;2023-02-19T10:20:55;11.60;90.50
14140;DHT22;7150;53.514;9.988;2023-02-19T10:23:21;11.60;90.50
14140;DHT22;7150;53.514;9.988;2023-02-19T10:25:52;11.70;90.20
14140;DHT22;7150;53.514;9.988;2023-02-19T10:28:21;11.70;89.20
14140;DHT22;7150;53.514;9.988;2023-02-19T10:30:51;11.70;89.80
14140;DHT22;7150;53.514;9.988;2023-02-19T10:33:17;11.80;88.70
14140;DHT22;7150;53.514;9.988;2023-02-19T10:38:16;11.90;88.40
14140;DHT22;7150;53.514;9.988;2023-02-19T10:40:46;12.00;87.20
14140;DHT22;7150;53.514;9.988;2023-02-19T10:43:25;11.90;85.30
14140;DHT22;7150;53.514;9.988;2023-02-19T10:46:00;11.90;84.20
14140;DHT22;7150;53.514;9.988;2023-02-19T10:48:37;11.80;83.80
14140;DHT22;7150;53.514;9.988;2023-02-19T10:51:10;11.90;84.20
14140;DHT22;7150;53.514;9.988;2023-02-19T10:56:23;11.80;83.70
14140;DHT22;7150;53.514;9.988;2023-02-19T10:58:49;11.90;83.90
14140;DHT22;7150;53.514;9.988;2023-02-19T11:01:23;12.00;83.40
14140;DHT22;7150;53.514;9.988;2023-02-19T11:04:13;12.10;84.10
14140;DHT22;7150;53.514;9.988;2023-02-19T11:06:36;12.20;83.20
14140;DHT22;7150;53.514;9.988;2023-02-19T11:09:02;12.10;82.00
14140;DHT22;7150;53.514;9.988;2023-02-19T11:11:36;12.10;82.20
14140;DHT22;7150;53.514;9.988;2023-02-19T11:14:12;12.10;81.20
14140;DHT22;7150;53.514;9.988;2023-02-19T11:16:48;12.10;81.30
14140;DHT22;7150;53.514;9.988;2023-02-19T11:19:23;12.10;81.00
14140;DHT22;7150;53.514;9.988;2023-02-19T11:21:49;12.20;80.20
14140;DHT22;7150;53.514;9.988;2023-02-19T11:24:26;12.20;79.70
14140;DHT22;7150;53.514;9.988;2023-02-19T11:26:53;12.30;78.30
14140;DHT22;7150;53.514;9.988;2023-02-19T11:29:20;12.30;77.80
14140;DHT22;7150;53.514;9.988;2023-02-19T11:31:47;12.30;78.50
14140;DHT22;7150;53.514;9.988;2023-02-19T11:36:39;12.40;78.30
14140;DHT22;7150;53.514;9.988;2023-02-19T11:39:19;12.40;78.50
14140;DHT22;7150;53.514;9.988;2023-02-19T11:45:00;12.40;77.60
14140;DHT22;7150;53.514;9.988;2023-02-19T12:04:25;12.60;77.30
14140;DHT22;7150;53.514;9.988;2023-02-19T12:23:55;12.80;73.80
14140;DHT22;7150;53.514;9.988;2023-02-19T12:26:36;12.80;74.20
14140;DHT22;7150;53.514;9.988;2023-02-19T12:29:43;12.70;74.70
14140;DHT22;7150;53.514;9.988;2023-02-19T12:32:27;12.80;75.30
14140;DHT22;7150;53.514;9.988;2023-02-19T12:40:53;12.90;74.80
14140;DHT22;7150;53.514;9.988;2023-02-19T12:43:23;12.80;75.30
14140;DHT22;7150;53.514;9.988;2023-02-19T12:46:07;12.90;75.00
14140;DHT22;7150;53.514;9.988;2023-02-19T12:48:39;12.90;73.90
14140;DHT22;7150;53.514;9.988;2023-02-19T12:51:29;12.80;72.30
14140;DHT22;7150;53.514;9.988;2023-02-19T12:54:03;12.80;72.00
14140;DHT22;7150;53.514;9.988;2023-02-19T12:56:35;12.80;71.00
14140;DHT22;7150;53.514;9.988;2023-02-19T13:01:43;12.90;69.60
14140;DHT22;7150;53.514;9.988;2023-02-19T13:04:16;12.90;69.40
14140;DHT22;7150;53.514;9.988;2023-02-19T13:09:47;13.10;70.90
14140;DHT22;7150;53.514;9.988;2023-02-19T13:12:19;13.10;70.90
14140;DHT22;7150;53.514;9.988;2023-02-19T13:14:50;13.00;70.30
14140;DHT22;7150;53.514;9.988;2023-02-19T13:17:23;13.00;70.70
14140;DHT22;7150;53.514;9.988;2023-02-19T13:19:55;13.10;71.40
14140;DHT22;7150;53.514;9.988;2023-02-19T13:22:33;13.10;70.50
14140;DHT22;7150;53.514;9.988;2023-02-19T13:25:21;13.10;71.20
14140;DHT22;7150;53.514;9.988;2023-02-19T13:28:14;13.10;70.00
14140;DHT22;7150;53.514;9.988;2023-02-19T13:33:45;13.10;69.70
14140;DHT22;7150;53.514;9.988;2023-02-19T13:36:36;13.20;69.60
14140;DHT22;7150;53.514;9.988;2023-02-19T13:39:03;13.20;69.30
14140;DHT22;7150;53.514;9.988;2023-02-19T13:41:38;13.20;69.20
14140;DHT22;7150;53.514;9.988;2023-02-19T13:44:06;13.30;69.80
14140;DHT22;7150;53.514;9.988;2023-02-19T13:46:40;13.30;70.20
14140;DHT22;7150;53.514;9.988;2023-02-19T13:54:24;13.20;69.80
14140;DHT22;7150;53.514;9.988;2023-02-19T13:59:48;13.30;69.40
14140;DHT22;7150;53.514;9.988;2023-02-19T14:19:56;13.50;71.30
14140;DHT22;7150;53.514;9.988;2023-02-19T14:25:39;13.40;71.90
14140;DHT22;7150;53.514;9.988;2023-02-19T14:30:32;13.40;72.30
14140;DHT22;7150;53.514;9.988;2023-02-19T14:33:00;13.30;72.00
14140;DHT22;7150;53.514;9.988;2023-02-19T14:35:34;13.30;72.30
14140;DHT22;7150;53.514;9.988;2023-02-19T14:38:02;13.30;72.60
14140;DHT22;7150;53.514;9.988;2023-02-19T14:40:39;13.30;71.70
14140;DHT22;7150;53.514;9.988;2023-02-19T14:43:07;13.30;71.90
14140;DHT22;7150;53.514;9.988;2023-02-19T14:45:49;13.30;71.90
14140;DHT22;7150;53.514;9.988;2023-02-19T14:48:26;13.20;72.00
14140;DHT22;7150;53.514;9.988;2023-02-19T14:50:59;13.20;72.70
14140;DHT22;7150;53.514;9.988;2023-02-19T14:53:28;13.30;72.30
14140;DHT22;7150;53.514;9.988;2023-02-19T14:55:54;13.20;72.50
14140;DHT22;7150;53.514;9.988;2023-02-19T14:58:29;13.20;72.60
14140;DHT22;7150;53.514;9.988;2023-02-19T15:00:56;13.20;72.80
14140;DHT22;7150;53.514;9.988;2023-02-19T15:06:09;13.20;72.90
14140;DHT22;7150;53.514;9.988;2023-02-19T15:08:44;13.30;73.00
14140;DHT22;7150;53.514;9.988;2023-02-19T15:11:15;13.20;73.20
14140;DHT22;7150;53.514;9.988;2023-02-19T15:13:41;13.20;73.80
14140;DHT22;7150;53.514;9.988;2023-02-19T15:16:15;13.20;73.70
14140;DHT22;7150;53.514;9.988;2023-02-19T15:18:44;13.10;73.60
14140;DHT22;7150;53.514;9.988;2023-02-19T15:21:22;12.90;73.90
14140;DHT22;7150;53.514;9.988;2023-02-19T15:23:49;13.00;74.10
14140;DHT22;7150;53.514;9.988;2023-02-19T15:26:24;13.00;74.30
14140;DHT22;7150;53.514;9.988;2023-02-19T15:28:59;13.10;74.60
14140;DHT22;7150;53.514;9.988;2023-02-19T15:31:25;13.10;74.20
14140;DHT22;7150;53.514;9.988;2023-02-19T15:33:51;13.10;74.30
14140;DHT22;7150;53.514;9.988;2023-02-19T15:36:24;13.10;74.50
14140;DHT22;7150;53.514;9.988;2023-02-19T15:38:54;13.10;74.20
14140;DHT22;7150;53.514;9.988;2023-02-19T15:41:21;13.20;74.20
14140;DHT22;7150;53.514;9.988;2023-02-19T15:43:52;13.20;74.20
14140;DHT22;7150;53.514;9.988;2023-02-19T15:46:20;13.20;74.00
14140;DHT22;7150;53.514;9.988;2023-02-19T15:48:59;13.20;74.00
14140;DHT22;7150;53.514;9.988;2023-02-19T15:51:42;13.20;73.90
14140;DHT22;7150;53.514;9.988;2023-02-19T15:54:27;13.20;74.00
14140;DHT22;7150;53.514;9.988;2023-02-19T15:56:57;13.20;73.90
14140;DHT22;7150;53.514;9.988;2023-02-19T15:59:46;13.20;74.10
14140;DHT22;7150;53.514;9.988;2023-02-19T16:02:14;13.20;74.20
14140;DHT22;7150;53.514;9.988;2023-02-19T16:04:42;13.10;74.60
14140;DHT22;7150;53.514;9.988;2023-02-19T16:07:26;13.20;74.90
14140;DHT22;7150;53.514;9.988;2023-02-19T16:10:18;13.20;74.90
14140;DHT22;7150;53.514;9.988;2023-02-19T16:12:54;13.20;74.60
14140;DHT22;7150;53.514;9.988;2023-02-19T16:15:20;13.10;74.60
14140;DHT22;7150;53.514;9.988;2023-02-19T16:17:46;13.10;74.70
14140;DHT22;7150;53.514;9.988;2023-02-19T16:20:24;13.10;74.70
14140;DHT22;7150;53.514;9.988;2023-02-19T16:22:51;13.10;74.70
14140;DHT22;7150;53.514;9.988;2023-02-19T16:25:45;13.00;74.50
14140;DHT22;7150;53.514;9.988;2023-02-19T16:28:21;13.00;74.60
14140;DHT22;7150;53.514;9.988;2023-02-19T16:30:58;12.90;74.50
14140;DHT22;7150;53.514;9.988;2023-02-19T16:41:31;12.80;75.40
14140;DHT22;7150;53.514;9.988;2023-02-19T16:43:56;12.80;75.60
14140;DHT22;7150;53.514;9.988;2023-02-19T16:46:22;12.80;75.80
14140;DHT22;7150;53.514;9.988;2023-02-19T16:48:48;12.80;75.90
14140;DHT22;7150;53.514;9.988;2023-02-19T16:51:20;12.70;76.00
14140;DHT22;7150;53.514;9.988;2023-02-19T16:53:48;12.80;76.30
14140;DHT22;7150;53.514;9.988;2023-02-19T16:56:15;12.70;76.40
14140;DHT22;7150;53.514;9.988;2023-02-19T16:58:42;12.80;76.60
14140;DHT22;7150;53.514;9.988;2023-02-19T17:01:08;12.80;76.80
14140;DHT22;7150;53.514;9.988;2023-02-19T17:03:34;12.80;76.90
14140;DHT22;7150;53.514;9.988;2023-02-19T17:06:01;12.70;77.10
14140;DHT22;7150;53.514;9.988;2023-02-19T17:08:55;12.80;77.20
14140;DHT22;7150;53.514;9.988;2023-02-19T17:11:21;12.80;77.00
14140;DHT22;7150;53.514;9.988;2023-02-19T17:17:02;12.60;77.40
14140;DHT22;7150;53.514;9.988;2023-02-19T17:19:28;12.50;77.60
14140;DHT22;7150;53.514;9.988;2023-02-19T17:21:53;12.40;77.90
14140;DHT22;7150;53.514;9.988;2023-02-19T17:24:19;12.40;78.00
14140;DHT22;7150;53.514;9.988;2023-02-19T17:26:44;12.40;78.20
14140;DHT22;7150;53.514;9.988;2023-02-19T17:29:13;12.40;78.10
14140;DHT22;7150;53.514;9.988;2023-02-19T17:31:39;12.40;78.10
14140;DHT22;7150;53.514;9.988;2023-02-19T17:34:04;12.30;78.20
14140;DHT22;7150;53.514;9.988;2023-02-19T17:36:30;12.30;78.30
14140;DHT22;7150;53.514;9.988;2023-02-19T17:38:57;12.30;78.20
14140;DHT22;7150;53.514;9.988;2023-02-19T17:41:23;12.30;78.30
14140;DHT22;7150;53.514;9.988;2023-02-19T17:43:48;12.30;78.30
14140;DHT22;7150;53.514;9.988;2023-02-19T17:46:20;12.30;78.30
14140;DHT22;7150;53.514;9.988;2023-02-19T17:48:46;12.40;78.30
14140;DHT22;7150;53.514;9.988;2023-02-19T17:51:11;12.40;78.30
14140;DHT22;7150;53.514;9.988;2023-02-19T17:53:37;12.50;78.50
14140;DHT22;7150;53.514;9.988;2023-02-19T17:56:03;12.50;78.40
14140;DHT22;7150;53.514;9.988;2023-02-19T17:58:28;12.50;78.50
14140;DHT22;7150;53.514;9.988;2023-02-19T18:00:54;12.50;78.50
14140;DHT22;7150;53.514;9.988;2023-02-19T18:03:19;12.50;78.60
14140;DHT22;7150;53.514;9.988;2023-02-19T18:05:45;12.50;78.70
14140;DHT22;7150;53.514;9.988;2023-02-19T18:08:11;12.50;78.70
14140;DHT22;7150;53.514;9.988;2023-02-19T18:10:36;12.50;79.60
14140;DHT22;7150;53.514;9.988;2023-02-19T18:13:02;12.50;79.00